createdAt,value
2023-08-26T00:02:32.418Z,44.30
2023-08-26T00:05:34.825Z,44.00
2023-08-26T00:08:36.929Z,43.90
2023-08-26T00:11:39.636Z,43.90
2023-08-26T00:14:41.770Z,43.80
2023-08-26T00:17:44.557Z,43.90
2023-08-26T00:20:46.682Z,44.00
2023-08-26T00:23:50.345Z,43.80
2023-08-26T00:26:52.463Z,44.00
2023-08-26T00:29:56.424Z,44.00
2023-08-26T00:32:58.487Z,44.00
2023-08-26T00:36:03.709Z,44.00
2023-08-26T00:39:06.521Z,44.20
2023-08-26T00:42:08.891Z,44.20
2023-08-26T00:45:11.378Z,44.20
2023-08-26T00:48:14.062Z,44.10
2023-08-26T00:51:16.799Z,44.10
2023-08-26T00:54:20.997Z,44.30
2023-08-26T00:57:23.265Z,44.40
2023-08-26T01:00:27.726Z,44.40
2023-08-26T01:03:29.907Z,44.40
2023-08-26T01:06:32.520Z,44.30
2023-08-26T01:09:34.540Z,44.50
2023-08-26T01:12:46.106Z,44.60
2023-08-26T01:15:51.762Z,44.50
2023-08-26T01:18:54.593Z,45.20
2023-08-26T01:22:01.609Z,44.40
2023-08-26T01:25:07.504Z,44.40
2023-08-26T01:28:09.709Z,44.40
2023-08-26T01:31:14.588Z,44.40
2023-08-26T01:34:24.853Z,44.20
2023-08-26T01:37:28.566Z,44.40
2023-08-26T01:40:31.053Z,44.00
2023-08-26T01:43:34.446Z,43.90
2023-08-26T01:46:41.237Z,43.70
2023-08-26T01:49:45.274Z,43.90
2023-08-26T01:52:47.514Z,44.00
2023-08-26T01:55:50.050Z,43.90
2023-08-26T01:58:52.418Z,43.60
2023-08-26T02:01:55.185Z,43.50
2023-08-26T02:04:57.676Z,43.40
2023-08-26T02:08:00.362Z,43.50
2023-08-26T02:11:02.744Z,43.50
2023-08-26T02:14:05.729Z,43.30
2023-08-26T02:17:07.976Z,43.30
2023-08-26T02:20:11.441Z,43.20
2023-08-26T02:23:15.097Z,43.30
2023-08-26T02:26:18.212Z,43.30
2023-08-26T02:29:20.409Z,43.40
2023-08-26T02:32:22.983Z,43.40
2023-08-26T02:35:25.414Z,43.50
2023-08-26T02:38:27.785Z,43.60
2023-08-26T02:41:31.375Z,43.70
2023-08-26T02:44:33.652Z,43.50
2023-08-26T02:47:35.735Z,43.40
2023-08-26T02:50:39.592Z,43.40
2023-08-26T02:53:41.599Z,43.40
2023-08-26T02:56:44.185Z,43.50
2023-08-26T02:59:46.704Z,43.40
2023-08-26T03:02:52.483Z,43.40
2023-08-26T03:06:00.255Z,43.30
2023-08-26T03:09:03.836Z,43.40
2023-08-26T03:12:06.080Z,43.50
2023-08-26T03:15:08.976Z,43.20
2023-08-26T03:18:11.912Z,43.20
2023-08-26T03:21:14.545Z,43.10
2023-08-26T03:24:18.275Z,43.10
2023-08-26T03:27:20.646Z,43.20
2023-08-26T03:30:22.625Z,43.10
2023-08-26T03:33:25.538Z,43.00
2023-08-26T03:36:27.942Z,43.10
2023-08-26T03:39:30.280Z,43.00
2023-08-26T03:42:33.408Z,42.90
2023-08-26T03:45:36.109Z,42.90
2023-08-26T03:48:38.931Z,42.80
2023-08-26T03:51:42.863Z,42.90
2023-08-26T03:54:48.860Z,42.70
2023-08-26T03:57:52.594Z,42.70
2023-08-26T04:01:03.324Z,43.00
2023-08-26T04:04:06.016Z,42.90
2023-08-26T04:07:08.803Z,42.90
2023-08-26T04:10:12.436Z,42.90
2023-08-26T04:13:22.310Z,42.90
2023-08-26T04:16:24.657Z,43.00
2023-08-26T04:19:26.829Z,42.70
2023-08-26T04:22:29.752Z,42.90
2023-08-26T04:25:32.081Z,43.00
2023-08-26T04:28:34.626Z,42.90
2023-08-26T04:31:37.030Z,42.80
2023-08-26T04:34:39.749Z,42.70
2023-08-26T04:37:41.698Z,42.60
2023-08-26T04:40:44.817Z,42.80
2023-08-26T04:43:48.431Z,42.80
2023-08-26T04:46:54.454Z,42.80
2023-08-26T04:49:56.946Z,42.90
2023-08-26T04:52:59.395Z,42.60
2023-08-26T04:56:01.930Z,42.60
2023-08-26T04:59:04.389Z,42.20
2023-08-26T05:02:09.244Z,42.00
2023-08-26T05:05:11.749Z,42.20
2023-08-26T05:08:13.777Z,41.70
2023-08-26T05:11:18.443Z,41.50
2023-08-26T05:14:20.463Z,41.30
2023-08-26T05:17:23.500Z,41.00
2023-08-26T05:20:26.705Z,40.60
2023-08-26T05:23:29.365Z,40.60
2023-08-26T05:26:31.689Z,40.50
2023-08-26T05:29:34.746Z,40.50
2023-08-26T05:32:37.504Z,40.40
2023-08-26T05:35:40.630Z,40.40
2023-08-26T05:38:42.688Z,40.40
2023-08-26T05:41:45.198Z,40.40
2023-08-26T05:44:47.627Z,40.40
2023-08-26T05:47:50.287Z,39.90
2023-08-26T05:50:52.423Z,39.60
2023-08-26T05:53:55.108Z,39.40
2023-08-26T05:56:57.154Z,39.10
2023-08-26T05:59:59.770Z,38.90
2023-08-26T06:03:02.385Z,38.80
2023-08-26T06:06:05.352Z,38.90
2023-08-26T06:09:07.780Z,38.60
2023-08-26T06:12:10.968Z,38.80
2023-08-26T06:15:13.381Z,39.00
2023-08-26T06:18:15.734Z,39.10
2023-08-26T06:21:17.841Z,39.40
2023-08-26T06:24:20.415Z,38.80
2023-08-26T06:27:24.282Z,39.10
2023-08-26T06:30:26.949Z,38.50
2023-08-26T06:33:29.089Z,38.10
2023-08-26T06:36:31.397Z,37.90
2023-08-26T06:39:33.415Z,37.50
2023-08-26T06:42:35.768Z,37.70
2023-08-26T06:45:37.709Z,37.50
2023-08-26T06:48:40.108Z,37.80
2023-08-26T06:51:42.151Z,37.80
2023-08-26T06:54:44.788Z,38.20
2023-08-26T06:57:46.976Z,38.30
2023-08-26T07:00:49.859Z,38.50
2023-08-26T07:03:52.245Z,38.70
2023-08-26T07:06:54.902Z,38.70
2023-08-26T07:09:57.249Z,39.20
2023-08-26T07:13:00.011Z,39.20
2023-08-26T07:16:02.226Z,39.00
2023-08-26T07:19:07.118Z,39.50
2023-08-26T07:22:09.139Z,39.50
2023-08-26T07:25:12.232Z,39.70
2023-08-26T07:28:17.011Z,39.50
2023-08-26T07:31:19.540Z,38.90
2023-08-26T07:34:22.663Z,38.70
2023-08-26T07:37:25.208Z,39.00
2023-08-26T07:40:28.230Z,38.60
2023-08-26T07:43:31.864Z,38.40
2023-08-26T07:49:39.253Z,38.20
2023-08-26T07:52:41.326Z,38.20
2023-08-26T07:55:43.742Z,37.90
2023-08-26T07:58:45.833Z,37.70
2023-08-26T08:01:51.342Z,37.50
2023-08-26T08:04:54.124Z,37.70
2023-08-26T08:07:57.168Z,37.80
2023-08-26T08:10:59.209Z,37.50
2023-08-26T08:14:02.127Z,37.80
2023-08-26T08:17:04.914Z,37.70
2023-08-26T08:20:07.736Z,37.60
2023-08-26T08:23:09.824Z,38.10
2023-08-26T08:26:12.805Z,37.80
2023-08-26T08:29:14.839Z,38.10
2023-08-26T08:32:17.160Z,38.30
2023-08-26T08:35:19.171Z,38.20
2023-08-26T08:38:21.966Z,38.50
2023-08-26T08:41:24.388Z,38.30
2023-08-26T08:44:28.680Z,38.80
2023-08-26T08:47:31.213Z,38.40
2023-08-26T08:50:34.204Z,38.30
2023-08-26T08:53:46.892Z,38.40
2023-08-26T08:56:50.415Z,38.70
2023-08-26T08:59:53.617Z,38.80
2023-08-26T09:02:59.065Z,39.70
2023-08-26T09:06:01.369Z,39.20
2023-08-26T09:09:22.587Z,39.20
2023-08-26T09:12:32.400Z,40.10
2023-08-26T09:15:35.106Z,40.70
2023-08-26T09:18:42.422Z,40.70
2023-08-26T09:21:46.414Z,39.80
2023-08-26T09:24:48.706Z,40.70
2023-08-26T09:27:51.345Z,40.50
2023-08-26T09:31:08.644Z,40.80
2023-08-26T09:34:12.033Z,40.40
2023-08-26T09:37:15.086Z,40.50
2023-08-26T09:40:19.698Z,41.30
2023-08-26T09:43:23.250Z,40.80
2023-08-26T09:46:26.051Z,40.60
2023-08-26T09:49:38.778Z,40.90
2023-08-26T09:52:46.860Z,41.40
2023-08-26T09:55:49.005Z,40.20
2023-08-26T09:58:57.445Z,39.90
2023-08-26T10:02:04.790Z,39.90
2023-08-26T10:05:14.185Z,38.70
2023-08-26T10:08:16.387Z,38.60
2023-08-26T10:11:21.996Z,38.50
2023-08-26T10:14:27.202Z,38.50
2023-08-26T10:17:32.657Z,38.10
2023-08-26T10:20:35.621Z,37.50
2023-08-26T10:23:42.225Z,37.90
2023-08-26T10:26:44.743Z,38.00
2023-08-26T10:29:48.453Z,37.90
2023-08-26T10:33:03.037Z,37.50
2023-08-26T10:36:16.044Z,38.00
2023-08-26T10:39:20.472Z,37.10
2023-08-26T10:42:24.101Z,36.90
2023-08-26T10:45:27.712Z,36.80
2023-08-26T10:48:30.423Z,36.50
2023-08-26T10:51:35.821Z,36.40
2023-08-26T10:54:38.253Z,36.90
2023-08-26T10:58:15.236Z,36.20
2023-08-26T11:01:19.603Z,36.10
2023-08-26T11:04:22.649Z,36.10
2023-08-26T11:07:25.493Z,34.90
2023-08-26T11:10:32.073Z,35.40
2023-08-26T11:13:35.588Z,35.90
2023-08-26T11:16:37.846Z,34.90
2023-08-26T11:19:40.637Z,35.20
2023-08-26T11:22:43.017Z,34.30
2023-08-26T11:25:45.624Z,34.70
2023-08-26T11:28:50.693Z,33.80
2023-08-26T11:31:54.399Z,33.60
2023-08-26T11:34:56.761Z,33.40
2023-08-26T11:38:00.931Z,33.50
2023-08-26T11:41:09.460Z,33.80
2023-08-26T11:44:18.251Z,33.30
2023-08-26T11:47:20.374Z,33.40
2023-08-26T11:50:23.420Z,33.30
2023-08-26T11:53:25.827Z,34.30
2023-08-26T11:56:28.407Z,34.70
2023-08-26T11:59:39.655Z,34.70
2023-08-26T12:02:53.576Z,34.50
2023-08-26T12:05:57.338Z,34.30
2023-08-26T12:09:00.280Z,33.70
2023-08-26T12:12:09.239Z,34.00
2023-08-26T12:15:14.225Z,33.60
2023-08-26T12:18:16.376Z,34.00
2023-08-26T12:21:18.739Z,34.30
2023-08-26T12:24:27.200Z,33.10
2023-08-26T12:27:40.725Z,33.80
2023-08-26T12:30:44.921Z,33.40
2023-08-26T12:33:59.436Z,33.20
2023-08-26T12:37:02.651Z,33.50
2023-08-26T12:40:08.119Z,33.40
2023-08-26T12:43:11.452Z,33.40
2023-08-26T12:46:14.439Z,34.10
2023-08-26T12:49:27.204Z,33.70
2023-08-26T12:52:30.455Z,34.80
2023-08-26T12:55:32.836Z,35.10
2023-08-26T12:58:35.633Z,34.60
2023-08-26T13:01:37.751Z,35.10
2023-08-26T13:04:42.576Z,33.60
2023-08-26T13:07:45.881Z,33.40
2023-08-26T13:10:55.305Z,33.90
2023-08-26T13:13:57.740Z,32.80
2023-08-26T13:17:03.556Z,32.80
2023-08-26T13:20:07.861Z,33.20
2023-08-26T13:23:11.764Z,33.70
2023-08-26T13:26:17.498Z,33.60
2023-08-26T13:29:27.386Z,33.70
2023-08-26T13:32:29.504Z,33.50
2023-08-26T13:35:33.532Z,33.00
2023-08-26T13:38:36.792Z,33.40
2023-08-26T13:41:42.158Z,33.70
2023-08-26T13:44:47.357Z,33.70
2023-08-26T13:47:56.392Z,33.40
2023-08-26T13:50:59.190Z,33.80
2023-08-26T13:54:01.527Z,33.80
2023-08-26T13:57:03.931Z,34.10
2023-08-26T14:00:08.117Z,34.30
2023-08-26T14:03:10.248Z,34.50
2023-08-26T14:06:14.288Z,35.00
2023-08-26T14:09:17.134Z,40.10
2023-08-26T14:12:19.821Z,39.00
2023-08-26T14:15:21.978Z,40.50
2023-08-26T14:18:25.856Z,44.40
2023-08-26T14:21:28.726Z,44.20
2023-08-26T14:24:31.155Z,45.60
2023-08-26T14:27:33.499Z,47.00
2023-08-26T14:30:37.047Z,47.50
2023-08-26T14:33:40.780Z,48.70
2023-08-26T14:36:43.184Z,49.40
2023-08-26T14:39:45.590Z,49.60
2023-08-26T14:42:48.320Z,49.50
2023-08-26T14:45:50.784Z,49.10
2023-08-26T14:48:53.206Z,48.20
2023-08-26T14:51:55.989Z,48.00
2023-08-26T14:54:58.458Z,47.50
2023-08-26T14:58:00.963Z,47.70
2023-08-26T15:01:03.778Z,47.30
2023-08-26T15:04:06.247Z,46.70
2023-08-26T15:07:11.593Z,47.30
2023-08-26T15:10:14.241Z,47.40
2023-08-26T15:13:18.817Z,47.50
2023-08-26T15:16:22.046Z,47.90
2023-08-26T15:19:25.601Z,48.00
2023-08-26T15:22:31.341Z,48.20
2023-08-26T15:25:37.600Z,47.30
2023-08-26T15:28:39.912Z,48.10
2023-08-26T15:31:46.170Z,47.90
2023-08-26T15:34:48.685Z,48.10
2023-08-26T15:37:52.317Z,48.10
2023-08-26T15:40:59.989Z,48.20
2023-08-26T15:44:03.785Z,48.30
2023-08-26T15:47:06.069Z,47.80
2023-08-26T15:50:09.873Z,48.10
2023-08-26T15:53:18.196Z,47.90
2023-08-26T15:56:26.433Z,47.90
2023-08-26T15:59:28.743Z,48.10
2023-08-26T16:02:31.451Z,47.60
2023-08-26T16:05:38.324Z,48.00
2023-08-26T16:08:41.094Z,47.70
2023-08-26T16:11:43.492Z,48.00
2023-08-26T16:14:46.214Z,47.80
2023-08-26T16:17:48.686Z,47.70
2023-08-26T16:20:51.004Z,47.30
2023-08-26T16:23:53.308Z,47.10
2023-08-26T16:26:55.868Z,47.70
2023-08-26T16:29:58.109Z,47.80
2023-08-26T16:33:03.313Z,47.90
2023-08-26T16:36:07.700Z,47.70
2023-08-26T16:39:11.493Z,47.80
2023-08-26T16:42:14.961Z,47.70
2023-08-26T16:45:17.529Z,47.40
2023-08-26T16:48:19.770Z,47.10
2023-08-26T16:51:23.330Z,47.00
2023-08-26T16:54:25.780Z,47.00
2023-08-26T16:57:27.984Z,47.30
2023-08-26T17:00:29.983Z,47.30
2023-08-26T17:03:32.407Z,47.20
2023-08-26T17:06:35.014Z,47.10
2023-08-26T17:09:37.268Z,47.00
2023-08-26T17:12:39.319Z,47.20
2023-08-26T17:15:41.980Z,47.10
2023-08-26T17:18:44.135Z,47.10
2023-08-26T17:21:46.830Z,46.90
2023-08-26T17:24:49.018Z,47.00
2023-08-26T17:27:51.327Z,47.10
2023-08-26T17:30:57.572Z,47.20
2023-08-26T17:34:00.187Z,47.10
2023-08-26T17:37:02.289Z,47.10
2023-08-26T17:40:05.185Z,46.70
2023-08-26T17:43:07.375Z,47.20
2023-08-26T17:46:09.622Z,46.60
2023-08-26T17:49:11.984Z,47.00
2023-08-26T17:52:17.038Z,46.40
2023-08-26T17:55:19.161Z,46.40
2023-08-26T17:58:22.113Z,46.50
2023-08-26T18:01:24.484Z,46.50
2023-08-26T18:04:27.046Z,46.50
2023-08-26T18:07:29.470Z,46.60
2023-08-26T18:10:32.987Z,46.60
2023-08-26T18:13:35.306Z,46.50
2023-08-26T18:16:37.697Z,46.70
2023-08-26T18:19:40.096Z,47.50
2023-08-26T18:22:42.628Z,47.80
2023-08-26T18:25:44.699Z,47.80
2023-08-26T18:28:47.251Z,47.20
2023-08-26T18:31:49.552Z,47.30
2023-08-26T18:34:52.345Z,47.10
2023-08-26T18:37:54.415Z,47.40
2023-08-26T18:41:01.059Z,47.00
2023-08-26T18:44:03.445Z,47.10
2023-08-26T18:47:05.943Z,47.10
2023-08-26T18:50:09.173Z,47.10
2023-08-26T18:53:12.245Z,47.20
2023-08-26T18:56:14.245Z,46.80
2023-08-26T18:59:16.665Z,46.90
2023-08-26T19:02:19.449Z,46.20
2023-08-26T19:05:25.312Z,46.60
2023-08-26T19:08:27.734Z,47.50
2023-08-26T19:11:30.444Z,48.40
2023-08-26T19:14:32.794Z,46.60
2023-08-26T19:17:35.249Z,46.30
2023-08-26T19:20:38.500Z,45.30
2023-08-26T19:23:41.884Z,45.60
2023-08-26T19:26:45.213Z,44.50
2023-08-26T19:29:47.788Z,44.70
2023-08-26T19:32:52.971Z,45.10
2023-08-26T19:35:57.011Z,45.30
2023-08-26T19:38:59.079Z,45.10
2023-08-26T19:42:01.469Z,45.10
2023-08-26T19:45:04.201Z,45.50
2023-08-26T19:48:07.940Z,45.80
2023-08-26T19:51:13.799Z,45.80
2023-08-26T19:54:17.061Z,46.10
2023-08-26T19:57:26.206Z,45.90
2023-08-26T20:00:30.905Z,45.80
2023-08-26T20:03:33.034Z,46.00
2023-08-26T20:06:35.502Z,46.30
2023-08-26T20:09:37.576Z,46.00
2023-08-26T20:12:39.956Z,45.90
2023-08-26T20:15:41.974Z,45.40
2023-08-26T20:18:44.398Z,45.50
2023-08-26T20:21:48.744Z,45.30
2023-08-26T20:24:54.761Z,44.90
2023-08-26T20:27:57.174Z,44.90
2023-08-26T20:31:02.733Z,45.20
2023-08-26T20:34:05.273Z,45.30
2023-08-26T20:37:07.767Z,44.80
2023-08-26T20:40:10.804Z,44.80
2023-08-26T20:43:14.154Z,44.60
2023-08-26T20:46:16.236Z,44.60
2023-08-26T20:49:19.801Z,44.80
2023-08-26T20:52:21.925Z,45.30
2023-08-26T20:55:24.362Z,45.00
2023-08-26T20:58:26.814Z,45.10
2023-08-26T21:01:29.548Z,45.00
2023-08-26T21:04:31.674Z,44.90
2023-08-26T21:07:34.361Z,45.60
2023-08-26T21:10:36.442Z,45.50
2023-08-26T21:13:39.771Z,44.90
2023-08-26T21:16:42.323Z,44.60
2023-08-26T21:19:44.836Z,44.70
2023-08-26T21:22:46.878Z,44.40
2023-08-26T21:25:55.005Z,44.60
2023-08-26T21:28:57.182Z,45.00
2023-08-26T21:32:00.602Z,44.80
2023-08-26T21:35:02.721Z,44.30
2023-08-26T21:38:05.210Z,44.10
2023-08-26T21:41:08.115Z,44.50
2023-08-26T21:44:13.005Z,43.80
2023-08-26T21:47:14.980Z,44.20
2023-08-26T21:50:17.614Z,44.30
2023-08-26T21:53:19.566Z,43.80
2023-08-26T21:56:22.532Z,44.10
2023-08-26T21:59:25.134Z,44.20
2023-08-26T22:02:27.488Z,44.00
2023-08-26T22:05:36.949Z,43.60
2023-08-26T22:08:39.423Z,43.60
2023-08-26T22:11:41.638Z,43.80
2023-08-26T22:14:43.885Z,43.40
2023-08-26T22:17:46.078Z,43.90
2023-08-26T22:20:48.475Z,43.60
2023-08-26T22:23:50.489Z,43.50
2023-08-26T22:26:52.853Z,43.40
2023-08-26T22:29:57.849Z,43.50
2023-08-26T22:33:01.665Z,43.90
2023-08-26T22:36:04.092Z,43.40
2023-08-26T22:39:17.580Z,43.10
2023-08-26T22:42:21.598Z,42.60
2023-08-26T22:45:23.956Z,43.00
2023-08-26T22:48:25.996Z,41.80
2023-08-26T22:51:28.682Z,41.10
2023-08-26T22:54:30.765Z,41.00
2023-08-26T22:57:33.074Z,41.00
2023-08-26T23:00:35.126Z,41.30
2023-08-26T23:03:37.476Z,41.20
2023-08-26T23:06:41.382Z,40.50
2023-08-26T23:09:43.880Z,40.10
2023-08-26T23:12:46.534Z,39.00
2023-08-26T23:15:53.813Z,39.50
2023-08-26T23:18:57.369Z,39.00
2023-08-26T23:22:01.939Z,39.00
2023-08-26T23:25:04.302Z,39.50
2023-08-26T23:28:07.508Z,39.10
2023-08-26T23:31:09.801Z,39.40
2023-08-26T23:34:18.847Z,39.40
2023-08-26T23:37:21.520Z,39.70
2023-08-26T23:40:24.133Z,39.90
2023-08-26T23:43:26.256Z,40.50
2023-08-26T23:46:28.634Z,40.90
2023-08-26T23:49:32.088Z,40.30
2023-08-26T23:52:34.594Z,41.70
2023-08-26T23:55:38.601Z,41.60
2023-08-26T23:58:40.994Z,40.20
